Time;durP1;ratioP1;P1;durP2;ratioP2;P2;SDS_P1;SDS_P2;PMS_P1;PMS_P2;Temp;Humidity;BMP_temperature;BMP_pressure;BME280_temperature;BME280_humidity;BME280_pressure;Samples;Min_cycle;Max_cycle;Signal;HPM_P1;HPM_P2
2023/06/03 00:01:58;;;;;;;4.10;1.05;;;12.90;99.90;;;;;;4989969;28;20397;-72
2023/06/03 00:04:28;;;;;;;3.05;0.93;;;12.90;99.90;;;;;;4991132;28;20049;-71
2023/06/03 00:06:54;;;;;;;3.13;1.30;;;12.90;99.90;;;;;;4993612;28;20060;-73
2023/06/03 00:09:19;;;;;;;3.77;1.00;;;12.80;99.90;;;;;;4993518;28;20060;-72
2023/06/03 00:11:45;;;;;;;2.63;1.00;;;12.80;99.90;;;;;;4991831;28;20278;-72
2023/06/03 00:14:10;;;;;;;6.40;1.20;;;12.80;99.90;;;;;;4990283;28;20077;-72
2023/06/03 00:16:36;;;;;;;1.73;0.90;;;12.70;99.90;;;;;;4997841;28;20351;-71
2023/06/03 00:19:02;;;;;;;3.47;1.10;;;12.70;99.90;;;;;;4988326;28;20685;-71
2023/06/03 00:21:27;;;;;;;4.68;1.20;;;12.80;99.90;;;;;;4998786;28;20104;-72
2023/06/03 00:23:54;;;;;;;3.05;1.40;;;12.70;99.90;;;;;;4993002;28;20527;-72
2023/06/03 00:26:21;;;;;;;;;;;12.70;99.90;;;;;;4986710;28;20053;-71
2023/06/03 00:28:48;;;;;;;;;;;12.60;99.90;;;;;;4994740;28;20080;-72
2023/06/03 00:31:14;;;;;;;3.78;1.10;;;12.60;99.90;;;;;;4993232;28;20103;-71
2023/06/03 00:33:39;;;;;;;2.78;0.80;;;12.60;99.90;;;;;;4999645;28;20136;-71
2023/06/03 00:36:06;;;;;;;4.40;0.93;;;12.60;99.90;;;;;;4996727;28;20073;-71
2023/06/03 00:38:31;;;;;;;3.67;1.00;;;12.50;99.90;;;;;;4998976;28;20049;-71
2023/06/03 00:40:57;;;;;;;3.15;0.93;;;12.40;99.90;;;;;;4990288;28;20119;-71
2023/06/03 00:43:22;;;;;;;2.50;0.82;;;12.50;99.90;;;;;;4995945;28;20041;-71
2023/06/03 00:45:48;;;;;;;1.70;0.87;;;12.50;99.90;;;;;;5000533;28;20046;-71
2023/06/03 00:48:14;;;;;;;2.25;0.90;;;12.50;99.90;;;;;;4998958;28;20042;-71
2023/06/03 00:50:41;;;;;;;2.37;1.00;;;12.40;99.90;;;;;;5000929;28;20050;-72
2023/06/03 00:53:10;;;;;;;2.03;0.60;;;12.40;99.90;;;;;;4994821;28;20406;-71
2023/06/03 00:55:37;;;;;;;2.78;0.70;;;12.40;99.90;;;;;;4983946;28;20042;-72
2023/06/03 00:58:03;;;;;;;2.08;0.75;;;12.40;99.90;;;;;;4984506;28;20050;-71
2023/06/03 01:00:29;;;;;;;2.88;1.02;;;12.30;99.90;;;;;;5007252;23;20042;-69
2023/06/03 01:02:56;;;;;;;2.07;0.73;;;12.30;99.90;;;;;;4999744;28;20492;-69
2023/06/03 01:05:22;;;;;;;3.25;0.82;;;12.30;99.90;;;;;;4975994;28;20314;-69
2023/06/03 01:08:00;;;;;;;2.05;0.80;;;12.40;99.90;;;;;;5002951;28;20880;-69
2023/06/03 01:11:07;;;;;;;1.98;1.00;;;12.30;99.90;;;;;;4992470;28;20407;-69
2023/06/03 01:13:43;;;;;;;2.10;0.70;;;12.30;99.90;;;;;;4964205;28;20033;-69
2023/06/03 01:16:10;;;;;;;2.65;0.88;;;12.30;99.90;;;;;;5002578;28;20038;-69
2023/06/03 01:18:37;;;;;;;5.30;1.25;;;12.30;99.90;;;;;;4999657;28;20049;-69
2023/06/03 01:21:05;;;;;;;2.05;0.80;;;12.30;99.90;;;;;;4996715;28;20105;-69
2023/06/03 01:23:34;;;;;;;2.35;0.80;;;12.30;99.90;;;;;;4995242;28;20049;-69
2023/06/03 01:26:04;;;;;;;1.70;0.80;;;12.30;99.90;;;;;;5000776;28;20038;-69
2023/06/03 01:28:30;;;;;;;2.00;1.10;;;12.20;99.90;;;;;;5004093;28;20464;-69
2023/06/03 01:30:58;;;;;;;1.67;0.73;;;12.20;99.90;;;;;;4993217;28;20065;-69
2023/06/03 01:33:27;;;;;;;2.03;0.60;;;12.20;99.90;;;;;;4988594;28;20046;-69
2023/06/03 01:35:54;;;;;;;1.70;0.70;;;12.20;99.90;;;;;;4995709;28;20042;-70
2023/06/03 01:38:22;;;;;;;1.38;0.70;;;12.20;99.90;;;;;;4993459;28;20132;-69
2023/06/03 01:40:48;;;;;;;1.90;0.60;;;12.20;99.90;;;;;;4996540;28;20042;-69
2023/06/03 01:43:14;;;;;;;1.77;0.88;;;12.20;99.90;;;;;;4994350;28;20050;-68
2023/06/03 01:45:40;;;;;;;1.35;0.60;;;12.20;99.90;;;;;;5000341;28;20495;-68
2023/06/03 01:48:05;;;;;;;3.30;1.00;;;12.20;99.90;;;;;;4991487;28;20100;-68
2023/06/03 01:50:31;;;;;;;1.63;0.50;;;12.20;99.90;;;;;;4988834;28;20370;-68
2023/06/03 01:52:57;;;;;;;4.78;1.17;;;12.20;99.90;;;;;;4979099;28;20049;-68
2023/06/03 01:55:22;;;;;;;2.90;0.73;;;12.20;99.90;;;;;;4999259;28;20121;-68
2023/06/03 01:57:48;;;;;;;2.25;0.80;;;12.20;99.90;;;;;;5010041;28;20141;-68
2023/06/03 02:00:16;;;;;;;2.60;0.80;;;12.20;99.90;;;;;;4987315;28;20048;-68
2023/06/03 02:02:42;;;;;;;2.80;0.70;;;12.20;99.90;;;;;;4994161;28;20053;-70
2023/06/03 02:05:13;;;;;;;2.20;0.82;;;12.20;99.90;;;;;;4988231;28;20046;-67
2023/06/03 02:07:41;;;;;;;2.50;0.82;;;12.10;99.90;;;;;;5007837;28;20031;-68
2023/06/03 02:10:15;;;;;;;2.83;0.80;;;12.10;99.90;;;;;;4991191;28;20128;-68
2023/06/03 02:12:41;;;;;;;2.53;0.90;;;12.10;99.90;;;;;;4994258;28;20233;-69
2023/06/03 02:15:07;;;;;;;1.93;0.63;;;12.10;99.90;;;;;;4990552;28;20426;-69
2023/06/03 02:17:33;;;;;;;3.40;1.10;;;12.00;99.90;;;;;;4996560;28;20096;-68
2023/06/03 02:19:58;;;;;;;1.48;0.65;;;12.00;99.90;;;;;;4992760;28;20042;-68
2023/06/03 02:22:26;;;;;;;3.60;0.80;;;11.90;99.90;;;;;;4991672;28;20038;-68
2023/06/03 02:24:52;;;;;;;4.05;1.20;;;11.90;99.90;;;;;;4999511;28;20046;-69
2023/06/03 02:27:24;;;;;;;2.70;0.60;;;11.90;99.90;;;;;;4991281;28;20041;-68
2023/06/03 02:29:50;;;;;;;1.25;0.47;;;11.90;99.90;;;;;;4990897;28;20287;-68
2023/06/03 02:32:18;;;;;;;1.70;0.70;;;11.80;99.90;;;;;;4996321;28;20062;-68
2023/06/03 02:34:43;;;;;;;1.25;0.70;;;11.80;99.90;;;;;;5018926;28;20061;-68
2023/06/03 02:37:10;;;;;;;1.90;0.70;;;11.70;99.90;;;;;;4986416;28;20046;-68
2023/06/03 02:39:39;;;;;;;3.03;0.80;;;11.80;99.90;;;;;;4993509;28;20602;-68
2023/06/03 02:42:05;;;;;;;2.42;0.80;;;11.70;99.90;;;;;;4994733;28;20459;-68
2023/06/03 02:44:30;;;;;;;2.15;0.85;;;11.60;99.90;;;;;;4986988;28;20057;-68
2023/06/03 02:46:56;;;;;;;5.83;0.80;;;11.60;99.90;;;;;;5003102;28;20041;-68
2023/06/03 02:49:22;;;;;;;2.00;1.00;;;11.60;99.90;;;;;;4992118;28;20045;-68
2023/06/03 02:51:47;;;;;;;2.70;0.87;;;11.50;99.90;;;;;;4994195;28;20053;-68
2023/06/03 02:54:13;;;;;;;3.40;0.90;;;11.50;99.90;;;;;;4992469;28;20090;-69
2023/06/03 02:56:39;;;;;;;2.10;0.97;;;11.50;99.90;;;;;;4985103;28;20063;-69
2023/06/03 02:59:05;;;;;;;4.07;1.02;;;11.50;99.90;;;;;;4995967;28;20827;-68
2023/06/03 03:01:31;;;;;;;2.17;0.63;;;11.40;99.90;;;;;;4997317;28;20108;-68
2023/06/03 03:03:57;;;;;;;2.60;1.00;;;11.40;99.90;;;;;;4997313;28;20060;-69
2023/06/03 03:06:24;;;;;;;4.00;0.80;;;11.40;99.90;;;;;;5000077;28;20101;-68
2023/06/03 03:08:53;;;;;;;;;;;11.40;99.90;;;;;;4994697;28;20049;-68
2023/06/03 03:11:19;;;;;;;1.98;0.80;;;11.30;99.90;;;;;;5000560;28;19972;-68
2023/06/03 03:13:45;;;;;;;1.85;0.60;;;11.30;99.90;;;;;;4988556;28;20042;-68
2023/06/03 03:16:12;;;;;;;2.83;1.15;;;11.30;99.90;;;;;;4997618;28;20042;-68
2023/06/03 03:18:37;;;;;;;;;;;11.30;99.90;;;;;;5011021;28;20061;-68
2023/06/03 03:21:04;;;;;;;3.40;0.90;;;11.20;99.90;;;;;;4998896;28;20392;-68
2023/06/03 03:23:30;;;;;;;;;;;11.20;99.90;;;;;;5000106;28;20073;-68
2023/06/03 03:25:57;;;;;;;2.25;0.82;;;11.10;99.90;;;;;;5011356;28;19924;-69
2023/06/03 03:28:23;;;;;;;1.90;0.65;;;11.10;99.90;;;;;;4997583;28;20137;-68
2023/06/03 03:30:49;;;;;;;1.95;0.80;;;11.10;99.90;;;;;;5001959;28;20034;-68
2023/06/03 03:33:21;;;;;;;1.13;0.60;;;11.10;99.90;;;;;;4988619;28;20046;-68
2023/06/03 03:35:50;;;;;;;2.20;0.60;;;11.00;99.90;;;;;;4991726;28;20055;-68
2023/06/03 03:38:16;;;;;;;1.85;0.90;;;11.00;99.90;;;;;;4992096;28;20069;-68
2023/06/03 03:40:45;;;;;;;4.95;0.85;;;11.00;99.90;;;;;;4995476;28;20046;-68
2023/06/03 03:43:17;;;;;;;2.92;0.80;;;10.90;99.90;;;;;;4987348;28;20057;-68
2023/06/03 03:45:43;;;;;;;2.33;0.98;;;10.90;99.90;;;;;;5014166;28;20117;-68
2023/06/03 03:48:12;;;;;;;3.05;0.70;;;10.90;99.90;;;;;;4973585;28;20176;-69
2023/06/03 03:50:48;;;;;;;2.15;0.88;;;10.90;99.90;;;;;;4990233;28;20079;-68
2023/06/03 03:53:25;;;;;;;1.77;0.70;;;10.90;99.90;;;;;;4994019;28;20057;-68
2023/06/03 03:55:55;;;;;;;3.75;0.98;;;10.90;99.90;;;;;;5000779;28;20042;-68
2023/06/03 03:58:40;;;;;;;1.42;0.60;;;10.90;99.90;;;;;;4977395;28;20462;-68
2023/06/03 04:01:12;;;;;;;2.88;0.85;;;10.90;99.90;;;;;;4995613;28;20420;-68
2023/06/03 04:03:42;;;;;;;1.65;0.75;;;10.90;99.90;;;;;;5013147;28;20049;-68
2023/06/03 04:06:13;;;;;;;2.53;0.73;;;10.90;99.90;;;;;;4995732;28;20048;-68
2023/06/03 04:08:45;;;;;;;2.22;0.80;;;10.90;99.90;;;;;;4994128;28;20053;-68
2023/06/03 04:11:27;;;;;;;1.75;0.75;;;10.90;99.90;;;;;;4998199;28;20046;-68
2023/06/03 04:13:54;;;;;;;3.05;1.00;;;10.90;99.90;;;;;;5008064;28;20053;-68
2023/06/03 04:16:46;;;;;;;2.42;0.73;;;10.90;99.90;;;;;;4998463;28;20038;-68
2023/06/03 04:19:32;;;;;;;1.92;0.80;;;10.90;99.90;;;;;;4995859;28;20053;-68
2023/06/03 04:21:59;;;;;;;2.33;0.75;;;11.00;99.90;;;;;;4999572;28;20084;-69
2023/06/03 04:24:25;;;;;;;;;;;10.90;99.90;;;;;;4996898;28;20534;-68
2023/06/03 04:26:52;;;;;;;1.42;0.60;;;11.00;99.90;;;;;;4997012;28;19984;-68
2023/06/03 04:29:18;;;;;;;;;;;11.00;99.90;;;;;;4978724;28;20042;-68
2023/06/03 04:31:43;;;;;;;3.28;0.73;;;11.00;99.90;;;;;;4993938;28;19973;-68
2023/06/03 04:34:09;;;;;;;2.50;0.80;;;11.10;99.90;;;;;;4994843;28;20130;-68
2023/06/03 04:36:37;;;;;;;2.90;0.80;;;11.10;99.90;;;;;;4998542;28;20292;-68
2023/06/03 04:39:05;;;;;;;3.13;1.58;;;11.10;99.90;;;;;;5000937;28;20037;-68
2023/06/03 04:41:32;;;;;;;1.73;0.68;;;11.20;99.90;;;;;;4999534;28;20387;-68
2023/06/03 04:44:02;;;;;;;4.10;0.93;;;11.20;99.90;;;;;;4993817;28;20050;-68
2023/06/03 04:46:31;;;;;;;5.65;1.00;;;11.30;99.90;;;;;;4992960;28;20042;-70
2023/06/03 04:49:08;;;;;;;1.30;0.50;;;11.30;99.90;;;;;;4992089;28;20045;-69
2023/06/03 04:51:35;;;;;;;3.78;0.65;;;11.30;99.90;;;;;;4995479;28;20503;-69
2023/06/03 04:54:01;;;;;;;2.67;0.88;;;11.40;99.90;;;;;;4998292;28;20206;-68
2023/06/03 04:56:31;;;;;;;4.07;0.80;;;11.50;99.90;;;;;;5000232;28;20057;-68
2023/06/03 04:58:57;;;;;;;1.95;0.80;;;11.40;99.90;;;;;;5000129;28;20046;-69
2023/06/03 05:01:26;;;;;;;3.90;1.00;;;11.50;99.90;;;;;;4988153;28;20038;-68
2023/06/03 05:03:53;;;;;;;2.15;0.80;;;11.50;99.90;;;;;;4990936;28;20061;-69
2023/06/03 05:06:19;;;;;;;1.83;0.65;;;11.60;99.90;;;;;;4980912;28;20076;-69
2023/06/03 05:08:48;;;;;;;4.07;1.30;;;11.60;99.90;;;;;;4997858;28;20046;-69
2023/06/03 05:11:18;;;;;;;3.10;0.98;;;11.60;99.90;;;;;;4997876;28;20050;-69
2023/06/03 05:13:44;;;;;;;3.30;1.15;;;11.60;99.90;;;;;;4995083;28;20057;-68
2023/06/03 05:16:12;;;;;;;;;;;11.70;99.90;;;;;;4996541;28;20511;-68
2023/06/03 05:18:43;;;;;;;2.05;1.02;;;11.70;99.90;;;;;;4999996;28;19926;-69
2023/06/03 05:21:09;;;;;;;3.28;0.77;;;11.70;99.90;;;;;;5001255;28;20054;-69
2023/06/03 05:23:35;;;;;;;2.70;0.80;;;11.70;99.90;;;;;;5000480;28;20155;-68
2023/06/03 05:26:00;;;;;;;2.27;0.87;;;11.70;99.90;;;;;;4994352;28;20058;-68
2023/06/03 05:28:26;;;;;;;3.03;0.70;;;11.80;99.90;;;;;;5002050;28;20042;-68
2023/06/03 05:30:51;;;;;;;3.67;0.90;;;11.80;99.90;;;;;;4997071;28;20046;-69
2023/06/03 05:33:24;;;;;;;3.03;0.90;;;11.80;99.90;;;;;;4994057;28;20034;-68
2023/06/03 05:35:49;;;;;;;1.45;0.70;;;11.90;99.90;;;;;;4998641;28;20042;-69
2023/06/03 05:38:17;;;;;;;4.97;0.77;;;11.90;99.90;;;;;;5001857;28;20044;-69
2023/06/03 05:40:43;;;;;;;3.03;1.02;;;12.00;99.90;;;;;;5000876;28;20042;-69
2023/06/03 05:43:12;;;;;;;2.55;1.10;;;12.00;99.90;;;;;;4994431;28;20045;-69
2023/06/03 05:45:37;;;;;;;1.38;0.60;;;12.10;99.90;;;;;;4991137;28;20052;-69
2023/06/03 05:48:03;;;;;;;2.20;0.80;;;12.20;99.90;;;;;;5002388;28;20125;-69
2023/06/03 05:50:29;;;;;;;2.20;1.15;;;12.20;99.90;;;;;;4996776;28;20128;-69
2023/06/03 05:52:55;;;;;;;5.27;0.97;;;12.30;99.90;;;;;;5019994;28;20149;-69
2023/06/03 05:55:22;;;;;;;2.33;0.90;;;12.30;99.90;;;;;;4997060;28;20518;-69
2023/06/03 05:57:56;;;;;;;1.38;0.60;;;12.30;99.90;;;;;;4996708;28;20451;-69
2023/06/03 06:00:22;;;;;;;3.80;1.10;;;12.40;99.90;;;;;;4990633;28;20034;-69
2023/06/03 06:02:48;;;;;;;1.52;0.93;;;12.40;99.90;;;;;;4999024;28;20077;-69
2023/06/03 06:05:14;;;;;;;2.20;0.90;;;12.50;99.90;;;;;;4996001;28;20042;-69
2023/06/03 06:07:42;;;;;;;3.03;0.77;;;12.60;99.90;;;;;;4995880;28;20374;-69
2023/06/03 06:10:10;;;;;;;3.08;1.02;;;12.70;99.90;;;;;;4995485;28;20496;-69
2023/06/03 06:12:35;;;;;;;3.20;1.00;;;12.70;99.90;;;;;;4982795;28;20096;-69
2023/06/03 06:15:01;;;;;;;2.07;0.83;;;12.70;99.90;;;;;;5000835;28;20318;-69
2023/06/03 06:17:26;;;;;;;5.13;0.80;;;12.80;99.90;;;;;;4993150;28;20042;-69
2023/06/03 06:19:52;;;;;;;3.67;0.93;;;12.90;99.90;;;;;;4993442;28;20090;-69
2023/06/03 06:22:18;;;;;;;1.70;0.80;;;13.00;99.90;;;;;;4993824;28;20401;-69
2023/06/03 06:24:43;;;;;;;2.28;0.90;;;13.00;99.90;;;;;;4997736;28;20049;-69
2023/06/03 06:27:10;;;;;;;1.17;0.70;;;13.10;99.90;;;;;;4993445;28;20056;-69
2023/06/03 06:29:35;;;;;;;1.75;0.88;;;13.20;99.90;;;;;;5012562;28;20072;-70
2023/06/03 06:32:03;;;;;;;2.50;0.93;;;13.30;99.90;;;;;;4992214;28;20077;-69
2023/06/03 06:34:31;;;;;;;2.50;1.00;;;13.30;99.90;;;;;;4999455;28;20050;-70
2023/06/03 06:36:58;;;;;;;2.58;0.98;;;13.40;99.90;;;;;;4999795;28;20517;-69
2023/06/03 06:39:33;;;;;;;1.25;0.60;;;13.50;99.90;;;;;;4992547;28;20294;-69
2023/06/03 06:42:17;;;;;;;1.83;0.93;;;13.60;99.90;;;;;;4999567;28;20046;-69
2023/06/03 06:44:48;;;;;;;3.08;0.75;;;13.70;99.90;;;;;;4997532;28;20229;-69
2023/06/03 06:47:20;;;;;;;1.98;0.95;;;13.70;99.90;;;;;;4989562;28;20050;-69
2023/06/03 06:49:46;;;;;;;1.70;0.80;;;13.80;99.90;;;;;;4998465;28;20034;-69
2023/06/03 06:52:15;;;;;;;1.83;0.73;;;13.80;99.90;;;;;;4999406;28;20502;-69
2023/06/03 06:54:41;;;;;;;3.25;0.77;;;13.90;99.90;;;;;;4996526;28;20046;-69
2023/06/03 06:57:07;;;;;;;;;;;14.00;99.90;;;;;;4998544;28;20100;-69
2023/06/03 06:59:33;;;;;;;2.92;0.80;;;14.10;99.90;;;;;;4993537;28;20377;-69
2023/06/03 07:04:26;;;;;;;4.28;0.80;;;14.40;99.90;;;;;;4935976;28;20215;-72
2023/06/03 07:06:52;;;;;;;1.70;0.80;;;14.50;99.90;;;;;;4941828;28;20036;-71
2023/06/03 07:09:18;;;;;;;3.92;1.20;;;14.60;99.90;;;;;;4942297;28;20290;-71
2023/06/03 07:11:45;;;;;;;3.27;0.70;;;14.80;99.90;;;;;;4943306;28;20638;-72
2023/06/03 07:14:12;;;;;;;2.10;0.90;;;14.90;99.90;;;;;;4929166;28;20040;-71
2023/06/03 07:16:38;;;;;;;2.13;0.57;;;15.00;99.90;;;;;;4919750;28;20047;-72
2023/06/03 07:19:05;;;;;;;1.33;0.40;;;15.20;99.90;;;;;;4914540;29;20138;-71
2023/06/03 07:21:32;;;;;;;2.17;0.75;;;15.20;99.90;;;;;;4921040;29;20083;-71
2023/06/03 07:24:01;;;;;;;2.63;0.52;;;15.30;99.90;;;;;;4920610;29;20533;-71
2023/06/03 07:26:33;;;;;;;1.48;0.50;;;15.40;99.90;;;;;;4915476;29;20044;-71
2023/06/03 07:28:59;;;;;;;2.55;0.70;;;15.40;99.90;;;;;;4918549;29;20109;-71
2023/06/03 07:31:24;;;;;;;2.88;0.80;;;15.40;99.90;;;;;;4917223;29;20151;-71
2023/06/03 07:33:55;;;;;;;1.95;0.60;;;15.40;99.90;;;;;;4910927;29;20553;-71
2023/06/03 07:36:22;;;;;;;3.20;0.93;;;15.40;99.90;;;;;;4916114;29;20138;-71
2023/06/03 07:39:02;;;;;;;2.08;0.65;;;15.30;99.90;;;;;;4915710;28;20187;-71
2023/06/03 07:41:45;;;;;;;1.65;0.70;;;15.30;99.90;;;;;;4917916;29;20042;-72
2023/06/03 07:44:12;;;;;;;2.78;0.80;;;15.30;99.90;;;;;;4924984;29;20077;-71
2023/06/03 07:46:43;;;;;;;1.23;0.45;;;15.30;99.90;;;;;;4915725;29;20040;-71
2023/06/03 07:49:13;;;;;;;1.25;0.45;;;15.30;99.90;;;;;;4917282;29;20051;-71
2023/06/03 07:51:50;;;;;;;2.13;0.70;;;15.30;99.90;;;;;;4920401;29;20463;-72
2023/06/03 07:54:17;;;;;;;1.60;0.40;;;15.30;99.90;;;;;;4924770;29;20051;-71
2023/06/03 07:56:43;;;;;;;4.75;0.60;;;15.30;99.90;;;;;;4908534;29;20418;-71
2023/06/03 07:59:14;;;;;;;2.20;0.90;;;15.30;99.90;;;;;;4922415;29;20044;-72
2023/06/03 08:01:39;;;;;;;2.22;0.63;;;15.40;99.90;;;;;;4920813;29;20071;-71
2023/06/03 08:04:26;;;;;;;1.58;0.47;;;15.40;99.90;;;;;;4926581;29;20082;-71
2023/06/03 08:06:52;;;;;;;2.13;0.70;;;15.50;99.90;;;;;;4926522;29;20074;-72
2023/06/03 08:09:29;;;;;;;2.05;0.80;;;15.60;99.90;;;;;;4925780;29;20275;-71
2023/06/03 08:12:00;;;;;;;2.90;0.60;;;15.80;99.90;;;;;;4925452;29;20097;-72
2023/06/03 08:14:26;;;;;;;1.67;0.70;;;15.90;99.90;;;;;;4925367;29;20403;-71
2023/06/03 08:16:52;;;;;;;2.75;0.60;;;16.10;99.90;;;;;;4923426;29;20123;-72
2023/06/03 08:19:20;;;;;;;1.10;0.50;;;16.10;99.90;;;;;;4928471;29;20263;-71
2023/06/03 08:21:46;;;;;;;1.60;0.50;;;16.30;99.90;;;;;;4925741;29;20155;-71
2023/06/03 08:24:13;;;;;;;1.33;0.50;;;16.30;99.90;;;;;;4926376;29;20091;-71
2023/06/03 08:26:40;;;;;;;1.65;0.50;;;16.50;99.90;;;;;;4925428;29;20082;-71
2023/06/03 08:29:08;;;;;;;3.58;0.63;;;16.60;99.90;;;;;;4925425;29;20091;-71
2023/06/03 08:31:33;;;;;;;1.67;0.63;;;16.70;99.90;;;;;;4921620;29;20043;-72
2023/06/03 08:34:01;;;;;;;1.45;0.63;;;16.80;99.90;;;;;;4922659;29;20048;-74
2023/06/03 08:36:26;;;;;;;2.83;0.50;;;16.90;99.90;;;;;;4927023;29;20107;-72
2023/06/03 08:38:53;;;;;;;2.65;0.60;;;17.00;99.90;;;;;;4918624;29;20039;-72
2023/06/03 08:41:21;;;;;;;2.13;0.47;;;17.20;99.90;;;;;;4924423;29;20074;-71
2023/06/03 08:44:06;;;;;;;0.93;0.47;;;17.30;99.90;;;;;;4916486;29;20844;-72
2023/06/03 08:46:45;;;;;;;0.85;0.40;;;17.40;99.90;;;;;;4927015;29;20078;-71
2023/06/03 08:49:17;;;;;;;1.55;0.50;;;17.50;99.90;;;;;;4919572;29;20114;-72
2023/06/03 08:51:46;;;;;;;1.42;0.60;;;17.60;99.90;;;;;;4922742;29;20052;-74
2023/06/03 08:54:17;;;;;;;1.48;0.50;;;17.70;99.70;;;;;;4928198;29;20047;-71
2023/06/03 08:56:56;;;;;;;2.38;0.52;;;17.80;99.70;;;;;;4924652;29;20052;-72
2023/06/03 08:59:26;;;;;;;4.03;0.52;;;17.90;98.50;;;;;;4925496;29;20054;-72
2023/06/03 09:01:55;;;;;;;3.67;0.55;;;18.10;97.90;;;;;;4919868;29;20071;-71
2023/06/03 09:04:22;;;;;;;2.60;0.60;;;18.20;96.80;;;;;;4926294;29;20048;-71
2023/06/03 09:06:49;;;;;;;1.45;0.47;;;18.30;96.20;;;;;;4913962;29;20050;-71
2023/06/03 09:09:15;;;;;;;1.55;0.32;;;18.40;95.20;;;;;;4927160;29;20052;-71
2023/06/03 09:11:44;;;;;;;2.35;0.40;;;18.50;94.90;;;;;;4919752;29;20110;-72
2023/06/03 09:14:12;;;;;;;1.30;0.45;;;18.60;93.80;;;;;;4923621;29;20284;-71
2023/06/03 09:16:38;;;;;;;6.68;0.50;;;18.80;92.50;;;;;;4919957;29;20508;-71
2023/06/03 09:19:04;;;;;;;1.60;0.40;;;18.90;90.90;;;;;;4924965;29;20036;-71
2023/06/03 09:21:29;;;;;;;2.45;0.60;;;19.00;90.10;;;;;;4917777;28;20050;-71
2023/06/03 09:23:56;;;;;;;1.65;0.57;;;19.00;88.30;;;;;;4925238;29;20047;-71
2023/06/03 09:26:21;;;;;;;1.50;0.43;;;19.20;87.70;;;;;;4909739;29;20047;-71
2023/06/03 09:28:48;;;;;;;0.63;0.25;;;19.20;87.00;;;;;;4913932;29;20550;-71
2023/06/03 09:31:13;;;;;;;2.53;0.50;;;19.30;84.30;;;;;;4921870;29;20335;-71
2023/06/03 09:33:40;;;;;;;3.58;0.55;;;19.40;82.90;;;;;;4922798;29;20307;-71
2023/06/03 09:36:13;;;;;;;0.93;0.30;;;19.50;79.70;;;;;;4914985;29;20092;-71
2023/06/03 09:38:52;;;;;;;4.00;0.40;;;19.60;78.80;;;;;;4922021;29;20224;-71
2023/06/03 09:41:27;;;;;;;1.27;0.40;;;19.60;76.80;;;;;;4919032;29;20048;-71
2023/06/03 09:44:06;;;;;;;1.55;0.45;;;19.70;76.30;;;;;;4908004;29;20051;-71
2023/06/03 09:46:34;;;;;;;1.27;0.65;;;19.80;76.00;;;;;;4924798;29;20043;-72
2023/06/03 09:49:14;;;;;;;2.47;0.73;;;19.90;75.00;;;;;;4926430;29;20146;-72
2023/06/03 09:51:48;;;;;;;0.85;0.35;;;19.90;73.70;;;;;;4915566;29;20475;-71
2023/06/03 09:54:18;;;;;;;0.65;0.30;;;20.00;74.30;;;;;;4902788;29;20044;-71
2023/06/03 09:56:45;;;;;;;2.90;0.38;;;20.10;74.80;;;;;;4922968;29;20177;-71
2023/06/03 09:59:21;;;;;;;0.70;0.30;;;20.20;74.60;;;;;;4925731;29;20055;-72
2023/06/03 10:01:49;;;;;;;1.25;0.35;;;20.30;73.10;;;;;;4919995;28;20280;-71
2023/06/03 10:04:22;;;;;;;5.82;0.90;;;20.30;73.00;;;;;;4903763;29;20207;-72
2023/06/03 10:07:09;;;;;;;1.63;0.50;;;20.40;71.50;;;;;;4919857;29;20051;-72
2023/06/03 10:09:35;;;;;;;1.35;0.50;;;20.50;70.70;;;;;;4917879;28;20512;-72
2023/06/03 10:12:02;;;;;;;2.45;0.73;;;20.50;70.80;;;;;;4920686;29;20047;-72
2023/06/03 10:14:27;;;;;;;2.22;0.60;;;20.60;69.90;;;;;;4906510;28;20051;-72
2023/06/03 10:17:04;;;;;;;1.42;0.88;;;20.70;69.70;;;;;;4920606;29;20092;-72
2023/06/03 10:19:37;;;;;;;1.25;0.38;;;20.70;68.90;;;;;;4918420;29;20055;-71
2023/06/03 10:22:05;;;;;;;3.97;0.70;;;20.70;69.30;;;;;;4916777;29;20135;-71
2023/06/03 10:24:37;;;;;;;0.82;0.45;;;20.80;69.60;;;;;;4926169;29;20126;-71
2023/06/03 10:27:03;;;;;;;1.48;0.50;;;20.90;68.60;;;;;;4917456;29;20178;-71
2023/06/03 10:29:30;;;;;;;1.73;0.52;;;20.90;68.50;;;;;;4922300;29;20440;-72
2023/06/03 10:31:57;;;;;;;3.28;0.50;;;20.90;67.30;;;;;;4912025;29;20368;-72
2023/06/03 10:34:23;;;;;;;1.30;0.73;;;21.10;67.30;;;;;;4914961;29;20138;-72
2023/06/03 10:36:51;;;;;;;1.83;0.63;;;21.10;67.80;;;;;;4913216;29;20574;-72
2023/06/03 10:39:18;;;;;;;2.92;0.93;;;21.10;67.70;;;;;;4918963;29;20275;-71
2023/06/03 10:41:45;;;;;;;2.13;0.50;;;21.10;67.80;;;;;;4911176;29;20103;-72
2023/06/03 10:44:10;;;;;;;1.23;0.30;;;21.10;68.20;;;;;;4917846;29;20593;-72
2023/06/03 10:46:45;;;;;;;2.05;0.68;;;21.10;68.20;;;;;;4916070;29;20485;-71
2023/06/03 10:49:14;;;;;;;3.60;0.50;;;21.10;68.40;;;;;;4916175;29;20279;-70
2023/06/03 10:52:08;;;;;;;1.25;0.50;;;21.10;68.30;;;;;;4917980;29;20056;-69
2023/06/03 10:54:53;;;;;;;2.47;0.68;;;21.10;67.00;;;;;;4905114;29;20051;-69
2023/06/03 10:57:25;;;;;;;0.65;0.30;;;21.20;67.80;;;;;;4923145;29;20098;-70
2023/06/03 10:59:51;;;;;;;1.48;0.50;;;21.20;66.90;;;;;;4919900;29;20055;-69
2023/06/03 11:02:17;;;;;;;2.17;0.60;;;21.20;66.50;;;;;;4921335;29;20042;-69
2023/06/03 11:04:43;;;;;;;1.20;0.50;;;21.20;66.70;;;;;;4920980;29;20051;-70
2023/06/03 11:07:30;;;;;;;3.53;0.40;;;21.20;66.50;;;;;;4916832;29;20437;-70
2023/06/03 11:09:56;;;;;;;0.95;0.43;;;21.30;66.70;;;;;;4916429;29;20051;-69
2023/06/03 11:12:49;;;;;;;0.93;0.52;;;21.40;67.50;;;;;;4919728;29;20040;-72
2023/06/03 11:15:14;;;;;;;2.25;0.40;;;21.40;67.50;;;;;;4922033;29;20043;-69
2023/06/03 11:17:42;;;;;;;2.08;0.50;;;21.50;67.70;;;;;;4918489;29;20109;-69
2023/06/03 11:20:08;;;;;;;1.10;0.47;;;21.50;67.70;;;;;;4936361;28;20060;-69
2023/06/03 11:22:37;;;;;;;;;;;21.50;66.80;;;;;;4922525;28;20055;-69
2023/06/03 11:25:03;;;;;;;2.47;0.63;;;21.50;66.30;;;;;;4921502;29;19923;-69
2023/06/03 11:27:29;;;;;;;;;;;21.50;66.60;;;;;;4917367;29;20172;-69
2023/06/03 11:29:59;;;;;;;1.20;0.45;;;21.50;66.80;;;;;;4925050;29;19919;-69
2023/06/03 11:32:30;;;;;;;2.05;0.57;;;21.60;67.40;;;;;;4926975;29;20054;-69
2023/06/03 11:35:05;;;;;;;2.05;0.50;;;21.70;66.50;;;;;;4925165;29;20046;-69
2023/06/03 11:37:40;;;;;;;1.77;0.43;;;21.80;66.00;;;;;;4922449;29;20056;-69
2023/06/03 11:40:08;;;;;;;2.03;0.50;;;21.80;65.00;;;;;;4918592;29;20605;-69
2023/06/03 11:42:51;;;;;;;0.45;0.28;;;21.90;64.30;;;;;;4925155;29;20135;-69
2023/06/03 11:45:17;;;;;;;2.38;0.93;;;21.90;63.90;;;;;;4920650;29;20050;-69
2023/06/03 11:47:49;;;;;;;;;;;21.90;63.80;;;;;;4940726;28;20123;-69
2023/06/03 11:50:18;;;;;;;2.28;0.52;;;21.90;64.30;;;;;;4922058;29;20349;-69
2023/06/03 11:52:44;;;;;;;0.82;0.35;;;21.90;63.40;;;;;;4921939;29;20534;-69
2023/06/03 11:55:10;;;;;;;;;;;22.00;63.20;;;;;;4916144;29;20110;-69
2023/06/03 11:57:37;;;;;;;1.10;0.55;;;22.00;64.00;;;;;;4920466;29;19923;-69
2023/06/03 12:00:10;;;;;;;1.75;0.60;;;22.10;63.50;;;;;;4919866;29;20135;-69
2023/06/03 12:02:46;;;;;;;3.60;0.60;;;22.20;63.20;;;;;;4924580;29;20119;-69
2023/06/03 12:05:15;;;;;;;1.92;0.57;;;22.30;62.90;;;;;;4924411;29;20047;-69
2023/06/03 12:07:52;;;;;;;1.08;0.40;;;22.40;62.40;;;;;;4921638;29;20051;-70
2023/06/03 12:10:18;;;;;;;2.47;0.70;;;22.40;63.20;;;;;;4914031;29;20043;-69
2023/06/03 12:12:53;;;;;;;;;;;22.50;62.40;;;;;;4913829;29;20063;-69
2023/06/03 12:15:20;;;;;;;1.30;0.65;;;22.50;61.20;;;;;;4921554;29;19995;-70
2023/06/03 12:17:46;;;;;;;1.92;0.50;;;22.60;62.50;;;;;;4921877;29;20321;-69
2023/06/03 12:20:28;;;;;;;2.35;0.60;;;22.60;62.00;;;;;;4925286;29;20040;-70
2023/06/03 12:23:04;;;;;;;1.15;0.60;;;22.70;62.30;;;;;;4924442;29;20505;-69
2023/06/03 12:25:33;;;;;;;1.52;0.60;;;22.90;61.50;;;;;;4919895;29;20135;-70
2023/06/03 12:28:27;;;;;;;3.20;0.65;;;22.90;61.50;;;;;;4919198;29;20086;-69
2023/06/03 12:30:53;;;;;;;2.20;0.50;;;23.00;60.40;;;;;;4925903;29;20102;-69
2023/06/03 12:33:18;;;;;;;;;;;23.10;60.80;;;;;;4918288;29;20479;-69
2023/06/03 12:35:54;;;;;;;1.27;0.60;;;23.10;60.20;;;;;;4923357;29;20243;-70
2023/06/03 12:38:26;;;;;;;2.25;0.57;;;23.10;60.80;;;;;;4923683;29;20144;-70
2023/06/03 12:41:06;;;;;;;2.67;0.50;;;23.10;61.10;;;;;;4919958;29;20075;-69
2023/06/03 12:43:34;;;;;;;0.95;0.40;;;23.20;61.10;;;;;;4922972;29;20051;-70
2023/06/03 12:46:18;;;;;;;1.10;0.30;;;23.30;60.80;;;;;;4926804;29;20118;-69
2023/06/03 12:48:44;;;;;;;4.32;0.50;;;23.40;60.00;;;;;;4917702;29;20055;-70
2023/06/03 12:51:23;;;;;;;;;;;23.50;60.30;;;;;;4926616;29;20048;-69
2023/06/03 12:53:49;;;;;;;2.08;0.88;;;23.60;59.80;;;;;;4909076;29;20202;-70
2023/06/03 12:56:15;;;;;;;2.72;0.50;;;23.60;59.80;;;;;;4906725;29;20056;-70
2023/06/03 12:58:42;;;;;;;;;;;23.70;58.80;;;;;;4919094;29;20043;-70
2023/06/03 13:01:10;;;;;;;2.20;0.63;;;23.70;58.10;;;;;;5013029;22;20003;-81
2023/06/03 13:04:21;;;;;;;1.27;0.50;;;23.70;58.40;;;;;;4994793;28;20105;-86